Nearby METAR Reports

 

KXLL - Allentown Queen, Pennsylvania, USA
Distance from station: E 6mi, 10km
Updated: Sun, 24-Sep-2017 11:35am EDT
Clear
Clear
 Wind from NNE
Wind: NNE 5 mph , 7 km/h
Temperature: 82°F , 28°C
Heat Index: 84°F , 29°C
Dew Point: 64°F , 18°C
Humidity: 55%
Barometer: 30.12 inHg , 1020 hPa
Clouds: Clear
Visibility: 10 miles , 16 km
2017/09/24 15:35 KXLL 241535Z AUTO 03004KT 10SM CLR 28/18 A3012 RMK AO2
KABE - Allentown, Pennsylvania, USA
Distance from station: NE 10mi, 17km
Updated: Sun, 24-Sep-2017 10:51am EDT
Clear
Clear
 Wind from calm
Wind: Calm
Temperature: 82°F , 28°C
Heat Index: 84°F , 29°C
Dew Point: 66°F , 19°C
Humidity: 58%
Barometer: 30.10 inHg , 1019.3 hPa
Clouds: Clear
Visibility: 10 miles , 16 km
2017/09/24 14:51 KABE 241451Z 00000KT 10SM CLR 28/19 A3010 RMK AO2 SLP191 T02830194 58006
 
KUKT - Quakertown Arp, Pennsylvania, USA
Distance from station: SE 14mi, 23km
Updated: Sun, 24-Sep-2017 11:35am EDT
Clear
Clear
 Wind from NNE
Wind: NNE 7 mph , 11 km/h
Temperature: 82°F , 28°C
Heat Index: 84°F , 29°C
Dew Point: 66°F , 19°C
Humidity: 58%
Barometer: 30.12 inHg , 1020 hPa
Clouds: Clear
Visibility: 10 miles , 16 km
2017/09/24 15:35 KUKT 241535Z AUTO 02006KT 10SM CLR 28/19 A3012 RMK AO1
KPTW - Pottstown, Pennsylvania, USA
Distance from station: S 22mi, 36km
Updated: Sun, 24-Sep-2017 10:54am EDT
Clear
Clear
 Wind from NE
Wind: NE 7 mph , 11 km/h
Temperature: 81°F , 27°C
Heat Index: 83°F , 28°C
Dew Point: 66°F , 19°C
Humidity: 62%
Barometer: 30.12 inHg , 1020 hPa
Clouds: Clear
Visibility: 9 miles , 14 km
2017/09/24 14:54 KPTW 241454Z AUTO 04006KT 9SM CLR 27/19 A3012 RMK AO2 SLP194 T02720189 58004 $
 
KRDG - Reading, Pennsylvania, USA
Distance from station: SW 23mi, 37km
Updated: Sun, 24-Sep-2017 10:54am EDT
Clear
Clear
 Wind from NW
Wind: NW 3 mph , 6 km/h
Temperature: 82°F , 28°C
Heat Index: 85°F , 29°C
Dew Point: 68°F , 20°C
Humidity: 62%
Barometer: 30.10 inHg , 1019.3 hPa
Clouds: Clear
Visibility: 10 miles , 16 km
2017/09/24 14:54 KRDG 241454Z 31003KT 10SM CLR 28/20 A3010 RMK AO2 SLP196 T02780200 58004 $
KDYL - Doylestown, Pennsylvania, USA
Distance from station: ESE 30mi, 48km
Updated: Sun, 24-Sep-2017 10:54am EDT
Clear
Clear
 Wind from NNW
Wind: NNW 3 mph , 6 km/h
Temperature: 82°F , 28°C
Heat Index: 84°F , 29°C
Dew Point: 66°F , 19°C
Humidity: 58%
Barometer: 30.10 inHg , 1019.3 hPa
Clouds: Clear
Visibility: 10 miles , 16 km
2017/09/24 14:54 KDYL 241454Z AUTO 34003KT 10SM CLR 28/19 A3010 RMK AO2 SLP185 T02830189 58003
 
KLOM - Philly Wings F, Pennsylvania, USA
Distance from station: SSE 34mi, 55km
Updated: Sun, 24-Sep-2017 11:35am EDT
Clear
Clear
 Wind from ENE
Wind: ENE 5 mph , 7 km/h
Temperature: 84°F , 29°C
Heat Index: 86°F , 30°C
Dew Point: 66°F , 19°C
Humidity: 55%
Barometer: 30.11 inHg , 1019.6 hPa
Clouds: Clear
Visibility: 10 miles , 16 km
2017/09/24 15:35 KLOM 241535Z AUTO 07004KT 10SM CLR 29/19 A3011 RMK AO1
KMPO - Mt. Pocono, Pennsylvania, USA
Distance from station: NNE 42mi, 67km
Updated: Sun, 24-Sep-2017 10:53am EDT
Clear
Clear
 Wind from NNE
Wind: NNE 9 mph , 15 km/h, Gust: 18 mph , 30 km/h
Temperature: 81°F , 27°C
Heat Index: 82°F , 28°C
Dew Point: 63°F , 17°C
Humidity: 54%
Barometer: 30.18 inHg , 1022 hPa
Clouds: Clear
Visibility: 10 miles , 16 km
2017/09/24 14:53 KMPO 241453Z AUTO 03008G16KT 10SM CLR 27/17 A3018 RMK AO2 SLP210 T02670167 51000
 
KMQS - Coatesville, Pennsylvania, USA
Distance from station: SSW 42mi, 67km
Updated: Sun, 24-Sep-2017 11:35am EDT
Clear
Clear
 Wind from calm
Wind: Calm
Temperature: 82°F , 28°C
Heat Index: 84°F , 29°C
Dew Point: 66°F , 19°C
Humidity: 58%
Barometer: 30.13 inHg , 1020.3 hPa
Clouds: Clear
Visibility: 10 miles , 16 km
2017/09/24 15:35 KMQS 241535Z AUTO 00000KT 10SM CLR 28/19 A3013 RMK AO2
KPNE - Philadelphia/Ne, Pennsylvania, USA
Distance from station: SE 45mi, 72km
Updated: Sun, 24-Sep-2017 10:54am EDT
Clear
Clear
 Wind from ENE
Wind: ENE 8 mph , 13 km/h
Temperature: 84°F , 29°C
Heat Index: 85°F , 29°C
Dew Point: 64°F , 18°C
Humidity: 51%
Barometer: 30.10 inHg , 1019.3 hPa
Clouds: Clear
Visibility: 10 miles , 16 km
2017/09/24 14:54 KPNE 241454Z 06007KT 10SM CLR 29/18 A3010 RMK AO2 SLP191 T02890183 58001
 
KTTN - Trenton, New Jersey, USA
Distance from station: ESE 45mi, 73km
Updated: Sun, 24-Sep-2017 10:53am EDT
Clear
Clear
 Wind from NE
Wind: NE 7 mph , 11 km/h
Temperature: 82°F , 28°C
Heat Index: 84°F , 29°C
Dew Point: 64°F , 18°C
Humidity: 55%
Barometer: 30.08 inHg , 1018.6 hPa
Clouds: Clear
Visibility: 10 miles , 16 km
2017/09/24 14:53 KTTN 241453Z 05006KT 10SM CLR 28/18 A3008 RMK AO2 SLP179 T02830183 58001
KLNS - Lancaster, Pennsylvania, USA
Distance from station: SW 48mi, 76km
Updated: Sun, 24-Sep-2017 10:53am EDT
Clear
Clear
 Wind from varies
Wind: varies 3 mph , 6 km/h
Temperature: 82°F , 28°C
Heat Index: 84°F , 29°C
Dew Point: 66°F , 19°C
Humidity: 58%
Barometer: 30.12 inHg , 1020 hPa
Clouds: Clear
Visibility: 10 miles , 16 km
2017/09/24 14:53 KLNS 241453Z VRB03KT 10SM CLR 28/19 A3012 RMK AO2 SLP195 T02780194 58002